createdAt,value
2018-06-30T00:00:05.989Z,99.90
2018-06-30T00:02:34.947Z,99.90
2018-06-30T00:05:03.691Z,99.90
2018-06-30T00:07:32.303Z,99.90
2018-06-30T00:10:00.724Z,99.90
2018-06-30T00:12:29.451Z,99.90
2018-06-30T00:14:58.104Z,99.90
2018-06-30T00:17:27.042Z,99.90
2018-06-30T00:19:55.664Z,99.90
2018-06-30T00:22:24.439Z,99.90
2018-06-30T00:24:52.803Z,99.90
2018-06-30T00:27:26.607Z,99.90
2018-06-30T00:29:55.263Z,99.90
2018-06-30T00:32:23.639Z,99.90
2018-06-30T00:34:52.147Z,99.90
2018-06-30T00:37:21.022Z,99.90
2018-06-30T00:39:49.691Z,99.90
2018-06-30T00:42:18.391Z,99.90
2018-06-30T00:44:46.785Z,99.90
2018-06-30T00:47:15.439Z,99.90
2018-06-30T00:49:45.412Z,99.90
2018-06-30T00:52:15.352Z,99.90
2018-06-30T00:54:44.065Z,99.90
2018-06-30T00:57:12.568Z,99.90
2018-06-30T00:59:40.939Z,99.90
2018-06-30T01:02:09.423Z,99.90
2018-06-30T01:04:37.799Z,99.90
2018-06-30T01:07:06.194Z,99.90
2018-06-30T01:09:35.741Z,99.90
2018-06-30T01:12:04.712Z,99.90
2018-06-30T01:14:33.099Z,99.90
2018-06-30T01:17:01.826Z,99.90
2018-06-30T01:19:30.203Z,99.90
2018-06-30T01:21:58.612Z,99.90
2018-06-30T01:24:26.972Z,99.90
2018-06-30T01:29:23.731Z,99.90
2018-06-30T01:31:52.451Z,99.90
2018-06-30T01:34:21.119Z,99.90
2018-06-30T01:36:52.122Z,99.90
2018-06-30T01:39:20.515Z,99.90
2018-06-30T01:41:48.955Z,99.90
2018-06-30T01:44:17.344Z,99.90
2018-06-30T01:46:45.999Z,99.90
2018-06-30T01:49:14.379Z,99.90
2018-06-30T01:51:42.759Z,99.90
2018-06-30T01:54:11.359Z,99.90
2018-06-30T01:56:39.972Z,99.90
2018-06-30T01:59:08.957Z,99.90
2018-06-30T02:01:37.647Z,99.90
2018-06-30T02:04:06.638Z,99.90
2018-06-30T02:06:35.020Z,99.90
2018-06-30T02:09:03.488Z,99.90
2018-06-30T02:11:31.919Z,99.90
2018-06-30T02:14:00.278Z,99.90
2018-06-30T02:16:28.961Z,99.90
2018-06-30T02:18:57.325Z,99.90
2018-06-30T02:21:25.678Z,99.90
2018-06-30T02:23:54.055Z,99.90
2018-06-30T02:26:22.422Z,99.90
2018-06-30T02:28:51.236Z,99.90
2018-06-30T02:31:20.300Z,99.90
2018-06-30T02:33:49.038Z,99.90
2018-06-30T02:36:18.008Z,99.90
2018-06-30T02:38:46.691Z,99.90
2018-06-30T02:41:15.368Z,99.90
2018-06-30T02:43:43.720Z,99.90
2018-06-30T02:46:12.188Z,99.90
2018-06-30T02:48:40.895Z,99.90
2018-06-30T02:51:09.524Z,99.90
2018-06-30T02:53:38.560Z,99.90
2018-06-30T02:56:06.927Z,99.90
2018-06-30T02:58:35.352Z,99.90
2018-06-30T03:01:03.771Z,99.90
2018-06-30T03:03:39.195Z,99.90
2018-06-30T03:06:07.847Z,99.90
2018-06-30T03:08:36.453Z,99.90
2018-06-30T03:11:05.340Z,99.90
2018-06-30T03:13:34.024Z,99.90
2018-06-30T03:16:08.800Z,99.90
2018-06-30T03:18:37.771Z,99.90
2018-06-30T03:21:06.147Z,99.90
2018-06-30T03:23:35.116Z,99.90
2018-06-30T03:26:03.496Z,99.90
2018-06-30T03:28:31.878Z,99.90
2018-06-30T03:31:00.259Z,99.90
2018-06-30T03:33:29.173Z,99.90
2018-06-30T03:35:57.760Z,99.90
2018-06-30T03:38:26.893Z,99.90
2018-06-30T03:40:55.543Z,99.90
2018-06-30T03:43:24.204Z,99.90
2018-06-30T03:45:53.079Z,99.90
2018-06-30T03:48:21.436Z,99.90
2018-06-30T03:50:50.123Z,99.90
2018-06-30T03:53:18.479Z,99.90
2018-06-30T03:55:47.107Z,99.90
2018-06-30T03:58:15.792Z,99.90
2018-06-30T04:00:44.151Z,99.90
2018-06-30T04:03:12.776Z,99.90
2018-06-30T04:05:41.279Z,99.90
2018-06-30T04:08:09.657Z,99.90
2018-06-30T04:10:38.031Z,99.90
2018-06-30T04:13:06.468Z,99.90
2018-06-30T04:15:35.332Z,99.90
2018-06-30T04:18:03.727Z,99.90
2018-06-30T04:20:32.131Z,99.90
2018-06-30T04:23:00.499Z,99.90
2018-06-30T04:25:29.160Z,99.90
2018-06-30T04:27:58.075Z,99.90
2018-06-30T04:30:26.443Z,99.90
2018-06-30T04:32:55.772Z,99.90
2018-06-30T04:35:24.357Z,99.90
2018-06-30T04:37:53.028Z,99.90
2018-06-30T04:40:21.675Z,99.90
2018-06-30T04:42:50.039Z,99.90
2018-06-30T04:45:18.835Z,99.90
2018-06-30T04:47:47.408Z,99.90
2018-06-30T04:50:16.351Z,99.90
2018-06-30T04:52:44.727Z,99.90
2018-06-30T04:55:13.100Z,99.90
2018-06-30T04:57:42.334Z,99.90
2018-06-30T05:00:10.884Z,99.90
2018-06-30T05:02:39.823Z,99.90
2018-06-30T05:05:08.214Z,99.90
2018-06-30T05:10:05.019Z,99.90
2018-06-30T05:12:33.693Z,99.90
2018-06-30T05:15:02.291Z,99.90
2018-06-30T05:17:30.676Z,99.90
2018-06-30T05:19:59.032Z,99.90
2018-06-30T05:22:27.411Z,99.90
2018-06-30T05:24:55.923Z,99.90
2018-06-30T05:27:24.787Z,99.90
2018-06-30T05:29:53.171Z,99.90
2018-06-30T05:32:21.848Z,99.90
2018-06-30T05:34:50.399Z,99.90
2018-06-30T05:37:18.851Z,99.90
2018-06-30T05:39:47.210Z,99.90
2018-06-30T05:42:15.622Z,99.90
2018-06-30T05:44:44.068Z,99.90
2018-06-30T05:47:12.787Z,99.90
2018-06-30T05:49:41.144Z,99.90
2018-06-30T05:52:09.519Z,99.90
2018-06-30T05:54:38.479Z,99.90
2018-06-30T05:57:07.847Z,99.90
2018-06-30T05:59:36.241Z,99.90
2018-06-30T06:02:04.979Z,99.90
2018-06-30T06:04:33.736Z,99.90
2018-06-30T06:07:02.353Z,99.90
2018-06-30T06:09:30.755Z,99.90
2018-06-30T06:11:59.136Z,99.90
2018-06-30T06:14:27.783Z,99.90
2018-06-30T06:16:56.144Z,99.90
2018-06-30T06:19:26.623Z,99.90
2018-06-30T06:21:55.040Z,99.90
2018-06-30T06:24:23.703Z,99.90
2018-06-30T06:26:52.507Z,99.90
2018-06-30T06:29:21.207Z,99.90
2018-06-30T06:31:49.911Z,99.90
2018-06-30T06:34:18.287Z,99.90
2018-06-30T06:36:50.094Z,99.90
2018-06-30T06:39:18.616Z,99.90
2018-06-30T06:41:47.047Z,99.90
2018-06-30T06:44:15.654Z,99.90
2018-06-30T06:46:44.019Z,99.90
2018-06-30T06:49:12.503Z,99.90
2018-06-30T06:54:09.824Z,99.90
2018-06-30T06:56:38.411Z,99.90
2018-06-30T06:59:08.897Z,99.90
2018-06-30T07:01:37.802Z,99.90
2018-06-30T07:04:06.232Z,99.90
2018-06-30T07:09:02.695Z,99.90
2018-06-30T07:13:59.723Z,99.90
2018-06-30T07:16:28.083Z,99.90
2018-06-30T07:18:56.435Z,99.90
2018-06-30T07:21:24.822Z,99.50
2018-06-30T07:23:53.723Z,98.70
2018-06-30T07:26:22.364Z,97.10
2018-06-30T07:28:50.964Z,96.40
2018-06-30T07:31:19.324Z,95.80
2018-06-30T07:33:48.265Z,93.40
2018-06-30T07:36:17.090Z,92.60
2018-06-30T07:38:45.602Z,91.30
2018-06-30T07:41:14.415Z,90.70
2018-06-30T07:43:42.823Z,91.50
2018-06-30T07:46:11.967Z,92.00
2018-06-30T07:48:41.299Z,91.10
2018-06-30T07:51:10.284Z,89.10
2018-06-30T07:53:38.975Z,90.00
2018-06-30T07:56:08.022Z,90.70
2018-06-30T07:58:36.848Z,90.20
2018-06-30T08:01:05.375Z,90.60
2018-06-30T08:03:33.755Z,90.10
2018-06-30T08:06:02.115Z,90.20
2018-06-30T08:08:30.728Z,88.20
2018-06-30T08:10:59.112Z,89.50
2018-06-30T08:13:27.504Z,88.50
2018-06-30T08:15:55.960Z,90.60
2018-06-30T08:18:24.351Z,87.90
2018-06-30T08:20:53.080Z,88.50
2018-06-30T08:23:21.883Z,85.20
2018-06-30T08:25:50.264Z,87.60
2018-06-30T08:28:18.655Z,87.10
2018-06-30T08:30:47.251Z,88.80
2018-06-30T08:35:44.243Z,87.00
2018-06-30T08:38:12.699Z,83.80
2018-06-30T08:40:41.328Z,79.00
2018-06-30T08:43:09.780Z,80.00
2018-06-30T08:45:38.204Z,78.50
2018-06-30T08:48:07.076Z,77.60
2018-06-30T08:50:35.456Z,78.00
2018-06-30T08:53:03.864Z,77.70
2018-06-30T08:55:32.273Z,78.20
2018-06-30T08:58:00.782Z,79.00
2018-06-30T09:00:29.791Z,78.00
2018-06-30T09:02:58.171Z,81.80
2018-06-30T09:05:26.851Z,77.20
2018-06-30T09:07:55.449Z,78.90
2018-06-30T09:10:24.231Z,77.10
2018-06-30T09:12:53.215Z,76.40
2018-06-30T09:15:21.868Z,78.90
2018-06-30T09:17:50.235Z,74.40
2018-06-30T09:22:47.654Z,72.90
2018-06-30T09:25:16.336Z,75.70
2018-06-30T09:27:44.726Z,74.50
2018-06-30T09:30:13.808Z,73.10
2018-06-30T09:32:42.723Z,74.10
2018-06-30T09:35:11.691Z,72.90
2018-06-30T09:37:40.140Z,74.00
2018-06-30T09:40:08.862Z,72.90
2018-06-30T09:42:37.220Z,73.20
2018-06-30T09:45:05.859Z,74.20
2018-06-30T09:47:34.239Z,73.40
2018-06-30T09:50:02.640Z,72.20
2018-06-30T09:52:31.003Z,72.70
2018-06-30T09:54:59.391Z,74.30
2018-06-30T09:57:29.803Z,72.60
2018-06-30T09:59:58.507Z,73.20
2018-06-30T10:02:26.903Z,72.20
2018-06-30T10:04:55.275Z,85.60
2018-06-30T10:07:23.859Z,87.40
2018-06-30T10:09:52.569Z,71.80
2018-06-30T10:14:49.899Z,67.70
2018-06-30T10:19:46.635Z,66.50
2018-06-30T10:22:14.991Z,66.20
2018-06-30T10:24:43.395Z,63.80
2018-06-30T10:27:12.037Z,67.00
2018-06-30T10:29:40.740Z,67.40
2018-06-30T10:34:38.500Z,76.90
2018-06-30T10:37:07.496Z,71.00
2018-06-30T10:39:35.872Z,69.90
2018-06-30T10:42:04.516Z,65.50
2018-06-30T10:47:01.253Z,64.40
2018-06-30T10:49:29.651Z,62.90
2018-06-30T10:51:58.045Z,72.70
2018-06-30T10:54:26.423Z,68.60
2018-06-30T10:56:55.098Z,58.80
2018-06-30T10:59:23.471Z,57.40
2018-06-30T11:01:51.891Z,61.10
2018-06-30T11:04:20.633Z,59.30
2018-06-30T11:06:48.963Z,61.80
2018-06-30T11:09:17.640Z,57.60
2018-06-30T11:11:46.660Z,59.20
2018-06-30T11:14:15.040Z,60.40
2018-06-30T11:16:43.395Z,59.40
2018-06-30T11:19:11.784Z,56.70
2018-06-30T11:21:40.340Z,56.90
2018-06-30T11:24:09.030Z,56.00
2018-06-30T11:26:37.411Z,56.70
2018-06-30T11:29:05.839Z,56.20
2018-06-30T11:31:35.748Z,54.50
2018-06-30T11:34:05.830Z,54.80
2018-06-30T11:36:36.355Z,56.10
2018-06-30T11:39:10.599Z,62.80
2018-06-30T11:41:41.993Z,54.80
2018-06-30T11:44:12.511Z,55.50
2018-06-30T11:46:42.465Z,52.30
2018-06-30T11:49:12.873Z,54.70
2018-06-30T11:51:44.277Z,51.90
2018-06-30T11:56:44.579Z,59.40
2018-06-30T11:59:33.258Z,57.70
2018-06-30T12:04:35.234Z,61.60
2018-06-30T12:07:06.351Z,60.90
2018-06-30T12:09:37.784Z,57.70
2018-06-30T12:12:07.440Z,57.00
2018-06-30T12:14:35.840Z,56.60
2018-06-30T12:17:04.495Z,53.10
2018-06-30T12:19:33.384Z,58.50
2018-06-30T12:22:01.819Z,59.90
2018-06-30T12:24:30.223Z,59.70
2018-06-30T12:26:58.905Z,58.30
2018-06-30T12:29:27.303Z,58.10
2018-06-30T12:31:56.252Z,63.60
2018-06-30T12:34:24.848Z,57.50
2018-06-30T12:36:53.579Z,54.00
2018-06-30T12:39:22.007Z,53.70
2018-06-30T12:41:50.431Z,54.40
2018-06-30T12:44:19.137Z,55.80
2018-06-30T12:46:47.500Z,54.20
2018-06-30T12:49:20.074Z,54.70
2018-06-30T12:51:48.887Z,56.80
2018-06-30T12:54:17.447Z,56.70
2018-06-30T12:56:45.815Z,56.40
2018-06-30T12:59:14.196Z,54.60
2018-06-30T13:01:42.591Z,55.00
2018-06-30T13:04:11.352Z,53.70
2018-06-30T13:06:39.748Z,56.80
2018-06-30T13:09:10.221Z,57.80
2018-06-30T13:11:38.625Z,62.60
2018-06-30T13:14:07.267Z,63.50
2018-06-30T13:19:09.806Z,55.00
2018-06-30T13:21:39.447Z,56.90
2018-06-30T13:24:09.758Z,55.00
2018-06-30T13:26:41.772Z,55.00
2018-06-30T13:29:12.798Z,56.90
2018-06-30T13:31:43.111Z,57.50
2018-06-30T13:34:13.864Z,60.00
2018-06-30T13:36:45.158Z,58.20
2018-06-30T13:39:16.381Z,58.50
2018-06-30T13:41:46.482Z,58.00
2018-06-30T13:44:17.404Z,59.30
2018-06-30T13:46:48.551Z,59.00
2018-06-30T13:49:17.965Z,60.20
2018-06-30T13:51:49.415Z,61.40
2018-06-30T13:54:20.651Z,60.40
2018-06-30T13:59:19.912Z,59.80
2018-06-30T14:01:50.723Z,61.70
2018-06-30T14:04:20.814Z,64.20
2018-06-30T14:06:52.054Z,67.60
2018-06-30T14:09:23.850Z,64.30
2018-06-30T14:11:54.388Z,63.80
2018-06-30T14:14:25.951Z,64.70
2018-06-30T14:16:56.251Z,65.20
2018-06-30T14:19:27.030Z,65.90
2018-06-30T14:21:57.389Z,65.20
2018-06-30T14:24:27.855Z,64.20
2018-06-30T14:26:58.822Z,65.20
2018-06-30T14:29:30.358Z,63.10
2018-06-30T14:32:01.837Z,64.50
2018-06-30T14:34:32.289Z,65.50
2018-06-30T14:37:04.862Z,66.50
2018-06-30T14:39:34.906Z,64.80
2018-06-30T14:42:05.219Z,66.70
2018-06-30T14:44:36.420Z,65.40
2018-06-30T14:47:05.472Z,65.20
2018-06-30T14:49:33.928Z,65.80
2018-06-30T14:52:02.283Z,67.60
2018-06-30T14:57:00.339Z,67.40
2018-06-30T14:59:28.783Z,66.20
2018-06-30T15:01:57.569Z,67.00
2018-06-30T15:04:25.943Z,67.90
2018-06-30T15:06:54.861Z,69.20
2018-06-30T15:09:23.231Z,66.30
2018-06-30T15:11:52.216Z,66.20
2018-06-30T15:14:20.604Z,65.60
2018-06-30T15:16:49.012Z,65.60
2018-06-30T15:19:17.663Z,66.20
2018-06-30T15:21:46.368Z,64.60
2018-06-30T15:24:15.064Z,64.90
2018-06-30T15:26:43.443Z,66.30
2018-06-30T15:29:11.839Z,66.50
2018-06-30T15:31:40.241Z,65.60
2018-06-30T15:34:08.908Z,66.40
2018-06-30T15:36:37.299Z,66.10
2018-06-30T15:39:08.184Z,67.10
2018-06-30T15:41:36.659Z,65.90
2018-06-30T15:44:05.543Z,70.00
2018-06-30T15:46:33.971Z,68.80
2018-06-30T15:51:30.547Z,71.60
2018-06-30T15:53:59.268Z,71.50
2018-06-30T15:56:27.727Z,68.70
2018-06-30T15:58:56.427Z,68.70
2018-06-30T16:01:25.083Z,68.70
2018-06-30T16:03:53.995Z,67.80
2018-06-30T16:06:22.405Z,68.70
2018-06-30T16:08:50.821Z,69.00
2018-06-30T16:11:19.224Z,69.70
2018-06-30T16:13:47.999Z,69.90
2018-06-30T16:16:16.461Z,67.60
2018-06-30T16:18:45.088Z,67.10
2018-06-30T16:21:13.687Z,66.70
2018-06-30T16:23:42.099Z,68.50
2018-06-30T16:26:10.552Z,67.10
2018-06-30T16:28:39.519Z,67.90
2018-06-30T16:31:08.511Z,66.90
2018-06-30T16:33:36.888Z,67.80
2018-06-30T16:36:05.524Z,66.90
2018-06-30T16:38:34.215Z,67.60
2018-06-30T16:41:02.867Z,67.60
2018-06-30T16:43:31.223Z,68.10
2018-06-30T16:45:59.871Z,65.40
2018-06-30T16:48:29.104Z,64.50
2018-06-30T16:50:57.504Z,63.40
2018-06-30T16:53:26.187Z,64.20
2018-06-30T16:55:57.717Z,65.00
2018-06-30T16:58:26.436Z,64.40
2018-06-30T17:00:55.167Z,65.20
2018-06-30T17:03:23.564Z,64.80
2018-06-30T17:05:52.081Z,64.80
2018-06-30T17:08:21.144Z,64.70
2018-06-30T17:10:49.624Z,65.00
2018-06-30T17:13:17.999Z,64.70
2018-06-30T17:15:46.508Z,65.10
2018-06-30T17:18:14.911Z,64.70
2018-06-30T17:20:43.855Z,64.80
2018-06-30T17:23:12.231Z,65.20
2018-06-30T17:25:40.782Z,64.10
2018-06-30T17:28:09.543Z,64.40
2018-06-30T17:30:38.198Z,63.50
2018-06-30T17:33:06.834Z,64.00
2018-06-30T17:35:35.575Z,64.40
2018-06-30T17:38:04.075Z,64.00
2018-06-30T17:40:32.723Z,63.70
2018-06-30T17:43:01.140Z,63.40
2018-06-30T17:45:29.566Z,63.90
2018-06-30T17:47:58.060Z,63.80
2018-06-30T17:50:26.443Z,64.10
2018-06-30T17:52:54.831Z,62.50
2018-06-30T17:55:23.200Z,62.30
2018-06-30T17:57:51.716Z,62.30
2018-06-30T18:00:20.079Z,61.90
2018-06-30T18:02:48.496Z,61.70
2018-06-30T18:05:16.859Z,61.60
2018-06-30T18:07:45.243Z,61.40
2018-06-30T18:10:13.753Z,60.50
2018-06-30T18:12:42.108Z,60.80
2018-06-30T18:17:38.567Z,59.70
2018-06-30T18:20:06.967Z,59.90
2018-06-30T18:22:37.202Z,60.00
2018-06-30T18:25:05.775Z,59.20
2018-06-30T18:27:34.168Z,58.80
2018-06-30T18:30:03.917Z,59.20
2018-06-30T18:32:32.627Z,58.10
2018-06-30T18:35:01.167Z,60.00
2018-06-30T18:37:29.575Z,58.00
2018-06-30T18:39:58.241Z,57.50
2018-06-30T18:42:26.633Z,56.90
2018-06-30T18:44:54.983Z,55.90
2018-06-30T18:47:23.367Z,55.70
2018-06-30T18:52:21.424Z,50.70
2018-06-30T18:54:49.776Z,51.90
2018-06-30T18:57:18.168Z,50.60
2018-06-30T18:59:46.876Z,50.70
2018-06-30T19:02:15.515Z,49.10
2018-06-30T19:07:11.954Z,48.40
2018-06-30T19:12:08.415Z,47.20
2018-06-30T19:14:37.048Z,47.40
2018-06-30T19:17:06.324Z,46.70
2018-06-30T19:19:35.019Z,46.40
2018-06-30T19:22:03.423Z,47.10
2018-06-30T19:24:32.111Z,45.90
2018-06-30T19:27:00.548Z,46.20
2018-06-30T19:29:28.933Z,46.10
2018-06-30T19:31:57.326Z,45.80
2018-06-30T19:34:25.703Z,45.90
2018-06-30T19:36:54.128Z,44.90
2018-06-30T19:39:22.604Z,45.50
2018-06-30T19:41:51.603Z,45.10
2018-06-30T19:44:20.148Z,44.50
2018-06-30T19:46:48.519Z,45.20
2018-06-30T19:49:16.948Z,45.00
2018-06-30T19:51:45.327Z,45.60
2018-06-30T19:54:13.688Z,44.70
2018-06-30T19:56:42.106Z,44.40
2018-06-30T19:59:10.787Z,44.60
2018-06-30T20:01:39.280Z,45.10
2018-06-30T20:04:07.979Z,46.10
2018-06-30T20:06:36.395Z,43.30
2018-06-30T20:09:07.512Z,44.10
2018-06-30T20:11:36.155Z,44.90
2018-06-30T20:14:05.075Z,44.00
2018-06-30T20:16:34.160Z,44.00
2018-06-30T20:19:02.517Z,43.90
2018-06-30T20:21:30.911Z,44.60
2018-06-30T20:23:59.266Z,43.90
2018-06-30T20:26:27.727Z,44.10
2018-06-30T20:28:56.119Z,44.70
2018-06-30T20:33:53.348Z,44.50
2018-06-30T20:36:21.953Z,45.10
2018-06-30T20:38:50.527Z,44.60
2018-06-30T20:41:19.059Z,45.50
2018-06-30T20:43:47.550Z,45.90
2018-06-30T20:46:16.252Z,46.00
2018-06-30T20:48:44.755Z,43.70
2018-06-30T20:51:13.163Z,44.30
2018-06-30T20:53:42.616Z,44.60
2018-06-30T20:56:11.316Z,44.60
2018-06-30T20:58:39.987Z,44.30
2018-06-30T21:01:08.349Z,44.70
2018-06-30T21:03:36.984Z,45.60
2018-06-30T21:06:05.483Z,45.10
2018-06-30T21:08:33.940Z,45.90
2018-06-30T21:11:02.586Z,46.30
2018-06-30T21:13:31.208Z,46.80
2018-06-30T21:15:59.924Z,45.80
2018-06-30T21:18:28.750Z,45.60
2018-06-30T21:20:57.143Z,45.80
2018-06-30T21:23:26.536Z,46.20
2018-06-30T21:25:54.931Z,46.50
2018-06-30T21:28:23.587Z,46.80
2018-06-30T21:30:52.285Z,46.60
2018-06-30T21:33:20.703Z,46.90
2018-06-30T21:35:49.409Z,47.30
2018-06-30T21:38:17.797Z,47.50
2018-06-30T21:40:46.204Z,47.70
2018-06-30T21:43:14.884Z,47.90
2018-06-30T21:45:43.665Z,48.60
2018-06-30T21:48:12.380Z,48.40
2018-06-30T21:50:41.016Z,49.50
2018-06-30T21:53:09.443Z,49.60
2018-06-30T21:55:37.897Z,49.20
2018-06-30T21:58:07.095Z,50.10
2018-06-30T22:00:49.615Z,49.70
2018-06-30T22:03:21.396Z,50.70
2018-06-30T22:05:50.567Z,50.00
2018-06-30T22:08:18.969Z,51.00
2018-06-30T22:10:47.566Z,51.40
2018-06-30T22:13:16.228Z,50.80
2018-06-30T22:15:44.631Z,51.20
2018-06-30T22:18:13.310Z,50.90
2018-06-30T22:20:41.959Z,51.40
2018-06-30T22:23:10.359Z,51.50
2018-06-30T22:25:39.281Z,51.80
2018-06-30T22:28:07.990Z,52.40
2018-06-30T22:30:37.890Z,52.40
2018-06-30T22:33:06.821Z,52.80
2018-06-30T22:35:35.307Z,53.50
2018-06-30T22:38:03.708Z,53.50
2018-06-30T22:40:32.141Z,53.60
2018-06-30T22:43:00.748Z,53.60
2018-06-30T22:45:29.655Z,53.90
2018-06-30T22:47:58.347Z,54.40
2018-06-30T22:50:27.007Z,54.60
2018-06-30T22:52:55.991Z,54.80
2018-06-30T22:55:24.739Z,54.90
2018-06-30T22:57:53.140Z,55.00
2018-06-30T23:00:21.580Z,55.20
2018-06-30T23:02:49.962Z,55.30
2018-06-30T23:05:18.627Z,55.30
2018-06-30T23:07:47.003Z,56.10
2018-06-30T23:10:15.907Z,55.60
2018-06-30T23:12:45.272Z,55.80
2018-06-30T23:15:13.692Z,56.00
2018-06-30T23:17:42.335Z,56.50
2018-06-30T23:20:11.047Z,56.20
2018-06-30T23:23:01.519Z,56.30
2018-06-30T23:25:31.251Z,56.50
2018-06-30T23:28:00.287Z,56.40
2018-06-30T23:30:29.955Z,56.60
2018-06-30T23:32:58.373Z,56.50
2018-06-30T23:37:57.211Z,56.40
2018-06-30T23:40:25.900Z,56.50
2018-06-30T23:42:54.503Z,56.90
2018-06-30T23:45:23.394Z,57.30
2018-06-30T23:47:53.012Z,57.40
2018-06-30T23:50:21.792Z,57.80
2018-06-30T23:52:50.208Z,57.90
2018-06-30T23:55:19.253Z,57.90
2018-06-30T23:57:47.619Z,58.90
